Time,TemperatureF,DewpointF,PressureIn,WindDirection,WindDirectionDegrees,WindSpeedMPH,WindSpeedGustMPH,Humidity,HourlyPrecipIn,Conditions,Clouds,dailyrainin,SolarRadiationWatts/m^2,SoftwareType,DateUTC
2013-06-22 07:40:00,70.0,33.0,30.00,NW,319,5.0,7.0,26,-99.99,,,-99.99,350.000000,,2013-06-22 14:40:00,
2013-06-22 08:22:00,70.0,33.0,30.00,NW,319,5.0,7.0,26,-99.99,,,-99.99,350.000000,,2013-06-22 15:22:00,
2013-06-22 08:34:00,70.0,33.0,30.00,NW,319,5.0,7.0,26,-99.99,,,-99.99,350.000000,,2013-06-22 15:34:00,
2013-06-22 08:40:00,72.0,32.0,30.01,WNW,292,3.0,4.0,23,-99.99,,,-99.99,551.000000,,2013-06-22 15:40:00,
2013-06-22 09:34:00,72.0,32.0,30.01,WNW,292,3.0,4.0,23,-99.99,,,-99.99,551.000000,,2013-06-22 16:34:00,
2013-06-22 09:40:00,74.0,35.0,30.01,West,273,4.0,6.0,24,-99.99,,,-99.99,762.000000,,2013-06-22 16:40:00,
2013-06-22 10:40:00,74.0,33.0,30.02,West,264,4.0,6.0,22,-99.99,,,-99.99,947.000000,,2013-06-22 17:40:00,
2013-06-22 11:34:00,74.0,33.0,30.02,West,264,4.0,6.0,22,-99.99,,,-99.99,947.000000,,2013-06-22 18:34:00,
2013-06-22 11:40:00,77.0,33.0,30.03,West,269,5.0,9.0,20,-99.99,,,-99.99,1047.000000,,2013-06-22 18:40:00,
2013-06-22 12:33:00,77.0,33.0,30.03,West,269,5.0,9.0,20,-99.99,,,-99.99,1047.000000,,2013-06-22 19:33:00,
2013-06-22 12:40:00,78.0,33.0,30.02,West,268,8.0,11.0,19,-99.99,,,-99.99,1075.000000,,2013-06-22 19:40:00,
2013-06-22 13:22:00,78.0,33.0,30.02,West,268,8.0,11.0,19,-99.99,,,-99.99,1075.000000,,2013-06-22 20:22:00,
2013-06-22 13:33:00,78.0,33.0,30.02,West,268,8.0,11.0,19,-99.99,,,-99.99,1075.000000,,2013-06-22 20:33:00,
2013-06-22 13:40:00,81.0,30.0,30.02,WNW,284,8.0,12.0,16,-99.99,,,-99.99,1062.000000,,2013-06-22 20:40:00,
2013-06-22 14:22:00,81.0,30.0,30.02,WNW,284,8.0,12.0,16,-99.99,,,-99.99,1062.000000,,2013-06-22 21:22:00,
2013-06-22 14:33:00,81.0,30.0,30.02,WNW,284,8.0,12.0,16,-99.99,,,-99.99,1062.000000,,2013-06-22 21:33:00,
2013-06-22 14:40:00,80.0,31.0,30.01,West,266,5.0,8.0,17,-99.99,,,-99.99,992.000000,,2013-06-22 21:40:00,
2013-06-22 15:40:00,82.0,36.0,29.99,West,268,5.0,9.0,19,-99.99,,,-99.99,876.000000,,2013-06-22 22:40:00,
2013-06-22 16:40:00,80.0,34.0,29.98,WSW,254,4.0,7.0,19,-99.99,,,-99.99,715.000000,,2013-06-22 23:40:00,
2013-06-22 17:33:00,80.0,34.0,29.98,WSW,254,4.0,7.0,19,-99.99,,,-99.99,715.000000,,2013-06-23 00:33:00,
2013-06-22 17:40:00,79.0,37.0,29.96,West,275,10.0,18.0,22,-99.99,,,-99.99,522.000000,,2013-06-23 00:40:00,
2013-06-22 18:21:00,79.0,37.0,29.96,West,275,10.0,18.0,22,-99.99,,,-99.99,522.000000,,2013-06-23 01:21:00,
2013-06-22 18:32:00,79.0,37.0,29.96,West,275,10.0,18.0,22,-99.99,,,-99.99,522.000000,,2013-06-23 01:32:00,
2013-06-22 18:40:00,78.0,33.0,29.95,WNW,287,10.0,15.0,19,-99.99,,,-99.99,311.000000,,2013-06-23 01:40:00,
2013-06-22 19:21:00,78.0,33.0,29.95,WNW,287,10.0,15.0,19,-99.99,,,-99.99,311.000000,,2013-06-23 02:21:00,
2013-06-22 19:31:00,78.0,33.0,29.95,WNW,287,10.0,15.0,19,-99.99,,,-99.99,311.000000,,2013-06-23 02:31:00,
2013-06-22 20:21:00,77.0,33.0,29.95,NW,306,2.0,4.0,20,-99.99,,,-99.99,118.000000,,2013-06-23 03:21:00,
2013-06-22 21:21:00,73.0,32.0,29.94,NW,320,9.0,11.0,22,-99.99,,,-99.99,2.000000,,2013-06-23 04:21:00,
2013-06-22 21:40:00,73.0,29.0,29.95,North,349,6.0,8.0,20,-99.99,,,-99.99,0.000000,,2013-06-23 04:40:00,
2013-06-22 22:22:00,73.0,29.0,29.95,North,349,6.0,8.0,20,-99.99,,,-99.99,0.000000,,2013-06-23 05:22:00,
2013-06-22 22:32:00,73.0,29.0,29.95,North,349,6.0,8.0,20,-99.99,,,-99.99,0.000000,,2013-06-23 05:32:00,
2013-06-22 23:22:00,73.0,19.0,29.96,NNW,347,6.0,10.0,13,-99.99,,,-99.99,0.000000,,2013-06-23 06:22:00,